sensor_id;sensor_type;location;lat;lon;timestamp;P1;durP1;ratioP1;P2;durP2;ratioP2
10725;SDS011;5414;59.782;16.378;2023-04-29T00:02:05;0.80;;;0.80;;
10725;SDS011;5414;59.782;16.378;2023-04-29T00:04:31;1.73;;;0.73;;
10725;SDS011;5414;59.782;16.378;2023-04-29T00:06:58;0.93;;;0.73;;
10725;SDS011;5414;59.782;16.378;2023-04-29T00:09:24;2.13;;;0.93;;
10725;SDS011;5414;59.782;16.378;2023-04-29T00:11:50;0.60;;;0.60;;
10725;SDS011;5414;59.782;16.378;2023-04-29T00:14:16;1.40;;;0.80;;
10725;SDS011;5414;59.782;16.378;2023-04-29T00:16:42;1.00;;;0.70;;
10725;SDS011;5414;59.782;16.378;2023-04-29T00:19:08;1.63;;;0.70;;
10725;SDS011;5414;59.782;16.378;2023-04-29T00:21:35;0.50;;;0.50;;
10725;SDS011;5414;59.782;16.378;2023-04-29T00:24:01;1.80;;;0.73;;
10725;SDS011;5414;59.782;16.378;2023-04-29T00:26:27;0.63;;;0.63;;
10725;SDS011;5414;59.782;16.378;2023-04-29T00:28:53;1.53;;;0.67;;
10725;SDS011;5414;59.782;16.378;2023-04-29T00:31:19;1.03;;;0.80;;
10725;SDS011;5414;59.782;16.378;2023-04-29T00:33:45;2.97;;;0.93;;
10725;SDS011;5414;59.782;16.378;2023-04-29T00:36:11;0.70;;;0.70;;
10725;SDS011;5414;59.782;16.378;2023-04-29T00:38:37;1.03;;;0.70;;
10725;SDS011;5414;59.782;16.378;2023-04-29T00:41:03;1.47;;;0.83;;
10725;SDS011;5414;59.782;16.378;2023-04-29T00:43:30;0.60;;;0.60;;
10725;SDS011;5414;59.782;16.378;2023-04-29T00:45:56;0.90;;;0.73;;
10725;SDS011;5414;59.782;16.378;2023-04-29T00:48:22;0.60;;;0.60;;
10725;SDS011;5414;59.782;16.378;2023-04-29T00:50:48;0.80;;;0.70;;
10725;SDS011;5414;59.782;16.378;2023-04-29T00:53:15;0.80;;;0.70;;
10725;SDS011;5414;59.782;16.378;2023-04-29T00:55:41;0.70;;;0.70;;
10725;SDS011;5414;59.782;16.378;2023-04-29T00:58:08;0.63;;;0.63;;
10725;SDS011;5414;59.782;16.378;2023-04-29T01:00:35;1.33;;;0.80;;
10725;SDS011;5414;59.782;16.378;2023-04-29T01:03:03;0.70;;;0.60;;
10725;SDS011;5414;59.782;16.378;2023-04-29T01:05:30;0.80;;;0.70;;
10725;SDS011;5414;59.782;16.378;2023-04-29T01:08:09;0.70;;;0.70;;
10725;SDS011;5414;59.782;16.378;2023-04-29T01:10:43;0.97;;;0.77;;
10725;SDS011;5414;59.782;16.378;2023-04-29T01:13:32;0.80;;;0.70;;
10725;SDS011;5414;59.782;16.378;2023-04-29T01:16:07;0.50;;;0.50;;
10725;SDS011;5414;59.782;16.378;2023-04-29T01:18:36;0.80;;;0.63;;
10725;SDS011;5414;59.782;16.378;2023-04-29T01:21:04;1.43;;;0.70;;
10725;SDS011;5414;59.782;16.378;2023-04-29T01:23:30;0.70;;;0.70;;
10725;SDS011;5414;59.782;16.378;2023-04-29T01:25:56;1.80;;;0.77;;
10725;SDS011;5414;59.782;16.378;2023-04-29T01:28:28;0.70;;;0.70;;
10725;SDS011;5414;59.782;16.378;2023-04-29T01:42:03;1.10;;;0.70;;
10725;SDS011;5414;59.782;16.378;2023-04-29T01:44:30;0.90;;;0.70;;
10725;SDS011;5414;59.782;16.378;2023-04-29T01:46:57;1.37;;;0.63;;
10725;SDS011;5414;59.782;16.378;2023-04-29T01:49:24;1.20;;;0.60;;
10725;SDS011;5414;59.782;16.378;2023-04-29T01:51:50;0.60;;;0.60;;
10725;SDS011;5414;59.782;16.378;2023-04-29T01:54:16;0.60;;;0.60;;
10725;SDS011;5414;59.782;16.378;2023-04-29T01:56:42;0.70;;;0.63;;
10725;SDS011;5414;59.782;16.378;2023-04-29T01:59:09;0.90;;;0.70;;
10725;SDS011;5414;59.782;16.378;2023-04-29T02:01:35;2.50;;;0.90;;
10725;SDS011;5414;59.782;16.378;2023-04-29T02:04:02;1.63;;;0.77;;
10725;SDS011;5414;59.782;16.378;2023-04-29T02:06:28;0.83;;;0.60;;
10725;SDS011;5414;59.782;16.378;2023-04-29T02:08:56;1.00;;;0.77;;
10725;SDS011;5414;59.782;16.378;2023-04-29T02:11:22;1.17;;;0.90;;
10725;SDS011;5414;59.782;16.378;2023-04-29T02:13:48;2.47;;;0.80;;
10725;SDS011;5414;59.782;16.378;2023-04-29T02:16:15;1.43;;;0.70;;
10725;SDS011;5414;59.782;16.378;2023-04-29T02:18:41;1.50;;;0.80;;
10725;SDS011;5414;59.782;16.378;2023-04-29T02:21:07;1.10;;;0.70;;
10725;SDS011;5414;59.782;16.378;2023-04-29T02:23:34;1.77;;;0.80;;
10725;SDS011;5414;59.782;16.378;2023-04-29T02:26:00;1.97;;;0.73;;
10725;SDS011;5414;59.782;16.378;2023-04-29T02:28:29;0.60;;;0.60;;
10725;SDS011;5414;59.782;16.378;2023-04-29T02:30:55;1.13;;;0.87;;
10725;SDS011;5414;59.782;16.378;2023-04-29T02:33:21;0.87;;;0.63;;
10725;SDS011;5414;59.782;16.378;2023-04-29T02:35:48;2.10;;;0.70;;
10725;SDS011;5414;59.782;16.378;2023-04-29T02:38:14;0.70;;;0.70;;
10725;SDS011;5414;59.782;16.378;2023-04-29T02:40:43;0.60;;;0.60;;
10725;SDS011;5414;59.782;16.378;2023-04-29T02:43:09;0.70;;;0.60;;
10725;SDS011;5414;59.782;16.378;2023-04-29T02:45:36;0.50;;;0.50;;
10725;SDS011;5414;59.782;16.378;2023-04-29T02:48:02;1.03;;;0.60;;
10725;SDS011;5414;59.782;16.378;2023-04-29T02:50:28;0.70;;;0.70;;
10725;SDS011;5414;59.782;16.378;2023-04-29T02:52:54;0.60;;;0.60;;
10725;SDS011;5414;59.782;16.378;2023-04-29T02:55:21;0.80;;;0.63;;
10725;SDS011;5414;59.782;16.378;2023-04-29T02:57:47;0.80;;;0.80;;
10725;SDS011;5414;59.782;16.378;2023-04-29T03:00:13;0.63;;;0.63;;
10725;SDS011;5414;59.782;16.378;2023-04-29T03:02:39;0.97;;;0.87;;
10725;SDS011;5414;59.782;16.378;2023-04-29T03:05:05;1.30;;;0.80;;
10725;SDS011;5414;59.782;16.378;2023-04-29T03:07:31;0.80;;;0.70;;
10725;SDS011;5414;59.782;16.378;2023-04-29T03:09:58;0.87;;;0.70;;
10725;SDS011;5414;59.782;16.378;2023-04-29T03:12:24;0.87;;;0.67;;
10725;SDS011;5414;59.782;16.378;2023-04-29T03:14:50;0.70;;;0.50;;
10725;SDS011;5414;59.782;16.378;2023-04-29T03:17:16;1.40;;;0.70;;
10725;SDS011;5414;59.782;16.378;2023-04-29T03:19:42;0.70;;;0.60;;
10725;SDS011;5414;59.782;16.378;2023-04-29T03:22:09;0.60;;;0.60;;
10725;SDS011;5414;59.782;16.378;2023-04-29T03:24:36;0.67;;;0.60;;
10725;SDS011;5414;59.782;16.378;2023-04-29T03:27:02;0.80;;;0.80;;
10725;SDS011;5414;59.782;16.378;2023-04-29T03:29:29;0.60;;;0.60;;
10725;SDS011;5414;59.782;16.378;2023-04-29T03:31:55;0.67;;;0.67;;
10725;SDS011;5414;59.782;16.378;2023-04-29T03:34:21;0.80;;;0.73;;
10725;SDS011;5414;59.782;16.378;2023-04-29T03:36:48;0.73;;;0.60;;
10725;SDS011;5414;59.782;16.378;2023-04-29T03:39:15;0.70;;;0.70;;
10725;SDS011;5414;59.782;16.378;2023-04-29T03:41:41;0.80;;;0.80;;
10725;SDS011;5414;59.782;16.378;2023-04-29T03:44:07;0.60;;;0.60;;
10725;SDS011;5414;59.782;16.378;2023-04-29T03:46:33;0.70;;;0.70;;
10725;SDS011;5414;59.782;16.378;2023-04-29T03:48:59;0.93;;;0.80;;
10725;SDS011;5414;59.782;16.378;2023-04-29T03:51:26;0.60;;;0.60;;
10725;SDS011;5414;59.782;16.378;2023-04-29T03:53:52;0.80;;;0.80;;
10725;SDS011;5414;59.782;16.378;2023-04-29T03:56:20;0.53;;;0.53;;
10725;SDS011;5414;59.782;16.378;2023-04-29T03:58:47;0.60;;;0.60;;
10725;SDS011;5414;59.782;16.378;2023-04-29T04:01:13;1.20;;;0.60;;
10725;SDS011;5414;59.782;16.378;2023-04-29T04:03:39;0.80;;;0.70;;
10725;SDS011;5414;59.782;16.378;2023-04-29T04:06:07;0.80;;;0.70;;
10725;SDS011;5414;59.782;16.378;2023-04-29T04:08:33;1.07;;;0.83;;
10725;SDS011;5414;59.782;16.378;2023-04-29T04:10:59;0.97;;;0.90;;
10725;SDS011;5414;59.782;16.378;2023-04-29T04:13:30;0.70;;;0.70;;
10725;SDS011;5414;59.782;16.378;2023-04-29T04:15:56;0.90;;;0.80;;
10725;SDS011;5414;59.782;16.378;2023-04-29T04:18:22;1.53;;;0.90;;
10725;SDS011;5414;59.782;16.378;2023-04-29T04:20:48;1.00;;;0.80;;
10725;SDS011;5414;59.782;16.378;2023-04-29T04:23:14;1.60;;;0.80;;
10725;SDS011;5414;59.782;16.378;2023-04-29T04:25:46;0.80;;;0.77;;
10725;SDS011;5414;59.782;16.378;2023-04-29T04:28:12;1.13;;;0.90;;
10725;SDS011;5414;59.782;16.378;2023-04-29T04:30:38;1.47;;;0.70;;
10725;SDS011;5414;59.782;16.378;2023-04-29T04:33:04;0.73;;;0.73;;
10725;SDS011;5414;59.782;16.378;2023-04-29T04:35:31;0.70;;;0.70;;
10725;SDS011;5414;59.782;16.378;2023-04-29T04:37:57;0.87;;;0.60;;
10725;SDS011;5414;59.782;16.378;2023-04-29T04:40:23;0.80;;;0.77;;
10725;SDS011;5414;59.782;16.378;2023-04-29T04:42:49;0.70;;;0.70;;
10725;SDS011;5414;59.782;16.378;2023-04-29T04:45:15;1.30;;;0.70;;
10725;SDS011;5414;59.782;16.378;2023-04-29T04:47:41;0.70;;;0.70;;
10725;SDS011;5414;59.782;16.378;2023-04-29T04:50:07;1.03;;;0.70;;
10725;SDS011;5414;59.782;16.378;2023-04-29T04:52:34;1.03;;;0.93;;
10725;SDS011;5414;59.782;16.378;2023-04-29T04:55:00;1.00;;;0.77;;
10725;SDS011;5414;59.782;16.378;2023-04-29T04:57:26;1.07;;;0.70;;
10725;SDS011;5414;59.782;16.378;2023-04-29T04:59:52;2.73;;;0.83;;
10725;SDS011;5414;59.782;16.378;2023-04-29T05:02:18;0.70;;;0.70;;
10725;SDS011;5414;59.782;16.378;2023-04-29T05:04:44;2.03;;;1.10;;
10725;SDS011;5414;59.782;16.378;2023-04-29T05:07:10;1.43;;;1.07;;
10725;SDS011;5414;59.782;16.378;2023-04-29T05:09:36;1.17;;;0.93;;
10725;SDS011;5414;59.782;16.378;2023-04-29T05:12:02;2.40;;;0.97;;
10725;SDS011;5414;59.782;16.378;2023-04-29T05:14:28;1.87;;;0.70;;
10725;SDS011;5414;59.782;16.378;2023-04-29T05:16:58;0.87;;;0.80;;
10725;SDS011;5414;59.782;16.378;2023-04-29T05:19:24;1.17;;;0.90;;
10725;SDS011;5414;59.782;16.378;2023-04-29T05:21:51;1.67;;;1.30;;
10725;SDS011;5414;59.782;16.378;2023-04-29T05:24:17;1.40;;;0.90;;
10725;SDS011;5414;59.782;16.378;2023-04-29T05:26:43;3.30;;;1.20;;
10725;SDS011;5414;59.782;16.378;2023-04-29T05:29:09;1.50;;;1.20;;
10725;SDS011;5414;59.782;16.378;2023-04-29T05:31:36;2.20;;;1.20;;
10725;SDS011;5414;59.782;16.378;2023-04-29T05:34:02;2.03;;;1.10;;
10725;SDS011;5414;59.782;16.378;2023-04-29T05:36:28;1.50;;;0.90;;
10725;SDS011;5414;59.782;16.378;2023-04-29T05:38:54;2.03;;;1.10;;
10725;SDS011;5414;59.782;16.378;2023-04-29T05:41:20;1.10;;;1.00;;
10725;SDS011;5414;59.782;16.378;2023-04-29T05:43:48;1.07;;;0.97;;
10725;SDS011;5414;59.782;16.378;2023-04-29T05:46:14;1.10;;;0.97;;
10725;SDS011;5414;59.782;16.378;2023-04-29T05:48:41;1.37;;;1.20;;
10725;SDS011;5414;59.782;16.378;2023-04-29T05:51:07;1.10;;;1.00;;
10725;SDS011;5414;59.782;16.378;2023-04-29T05:53:33;1.20;;;1.10;;
10725;SDS011;5414;59.782;16.378;2023-04-29T05:56:00;1.60;;;1.00;;
10725;SDS011;5414;59.782;16.378;2023-04-29T05:58:30;0.80;;;0.80;;
10725;SDS011;5414;59.782;16.378;2023-04-29T06:00:56;1.20;;;1.10;;
10725;SDS011;5414;59.782;16.378;2023-04-29T06:03:22;1.67;;;1.10;;
10725;SDS011;5414;59.782;16.378;2023-04-29T06:05:48;1.00;;;0.90;;
10725;SDS011;5414;59.782;16.378;2023-04-29T06:08:14;1.00;;;0.90;;
10725;SDS011;5414;59.782;16.378;2023-04-29T06:10:41;1.70;;;1.03;;
10725;SDS011;5414;59.782;16.378;2023-04-29T06:13:07;2.03;;;0.90;;
10725;SDS011;5414;59.782;16.378;2023-04-29T06:15:33;1.17;;;0.93;;
10725;SDS011;5414;59.782;16.378;2023-04-29T06:17:59;1.60;;;1.00;;
10725;SDS011;5414;59.782;16.378;2023-04-29T06:20:25;1.20;;;1.10;;
10725;SDS011;5414;59.782;16.378;2023-04-29T06:22:51;1.30;;;1.20;;
10725;SDS011;5414;59.782;16.378;2023-04-29T06:25:17;1.23;;;1.13;;
10725;SDS011;5414;59.782;16.378;2023-04-29T06:27:43;1.50;;;1.10;;
10725;SDS011;5414;59.782;16.378;2023-04-29T06:30:09;1.20;;;1.10;;
10725;SDS011;5414;59.782;16.378;2023-04-29T06:32:37;1.37;;;1.20;;
10725;SDS011;5414;59.782;16.378;2023-04-29T06:35:03;1.23;;;1.13;;
10725;SDS011;5414;59.782;16.378;2023-04-29T06:37:29;1.27;;;1.17;;
10725;SDS011;5414;59.782;16.378;2023-04-29T06:39:55;1.40;;;1.30;;
10725;SDS011;5414;59.782;16.378;2023-04-29T06:42:21;1.33;;;1.23;;
10725;SDS011;5414;59.782;16.378;2023-04-29T06:44:47;1.23;;;1.13;;
10725;SDS011;5414;59.782;16.378;2023-04-29T06:47:13;1.03;;;0.93;;
10725;SDS011;5414;59.782;16.378;2023-04-29T06:49:39;1.13;;;1.03;;
10725;SDS011;5414;59.782;16.378;2023-04-29T06:52:07;1.67;;;1.17;;
10725;SDS011;5414;59.782;16.378;2023-04-29T06:54:33;1.83;;;1.10;;
10725;SDS011;5414;59.782;16.378;2023-04-29T06:57:00;1.43;;;1.30;;
10725;SDS011;5414;59.782;16.378;2023-04-29T06:59:26;1.53;;;1.20;;
10725;SDS011;5414;59.782;16.378;2023-04-29T07:01:52;1.23;;;1.13;;
10725;SDS011;5414;59.782;16.378;2023-04-29T07:04:18;2.10;;;1.20;;
10725;SDS011;5414;59.782;16.378;2023-04-29T07:06:44;1.03;;;1.00;;
10725;SDS011;5414;59.782;16.378;2023-04-29T07:09:14;1.40;;;1.13;;
10725;SDS011;5414;59.782;16.378;2023-04-29T07:11:40;1.10;;;1.00;;
10725;SDS011;5414;59.782;16.378;2023-04-29T07:14:06;1.50;;;1.00;;
10725;SDS011;5414;59.782;16.378;2023-04-29T07:16:32;2.63;;;1.10;;
10725;SDS011;5414;59.782;16.378;2023-04-29T07:18:59;1.67;;;1.03;;
10725;SDS011;5414;59.782;16.378;2023-04-29T07:21:25;1.20;;;1.10;;
10725;SDS011;5414;59.782;16.378;2023-04-29T07:23:51;0.90;;;0.90;;
10725;SDS011;5414;59.782;16.378;2023-04-29T07:26:19;1.33;;;1.10;;
10725;SDS011;5414;59.782;16.378;2023-04-29T07:28:46;1.10;;;1.00;;
10725;SDS011;5414;59.782;16.378;2023-04-29T07:31:13;1.00;;;0.80;;
10725;SDS011;5414;59.782;16.378;2023-04-29T07:33:40;1.70;;;0.90;;
10725;SDS011;5414;59.782;16.378;2023-04-29T07:36:06;1.03;;;0.90;;
10725;SDS011;5414;59.782;16.378;2023-04-29T07:38:33;1.83;;;0.83;;
10725;SDS011;5414;59.782;16.378;2023-04-29T07:41:01;0.97;;;0.83;;
10725;SDS011;5414;59.782;16.378;2023-04-29T07:43:28;0.77;;;0.77;;
10725;SDS011;5414;59.782;16.378;2023-04-29T07:45:54;1.47;;;0.80;;
10725;SDS011;5414;59.782;16.378;2023-04-29T07:48:20;0.80;;;0.80;;
10725;SDS011;5414;59.782;16.378;2023-04-29T07:50:46;2.20;;;1.00;;
10725;SDS011;5414;59.782;16.378;2023-04-29T07:53:13;1.07;;;0.90;;
10725;SDS011;5414;59.782;16.378;2023-04-29T07:55:40;0.90;;;0.87;;
10725;SDS011;5414;59.782;16.378;2023-04-29T07:58:06;1.57;;;1.10;;
10725;SDS011;5414;59.782;16.378;2023-04-29T08:00:32;1.33;;;1.00;;
10725;SDS011;5414;59.782;16.378;2023-04-29T08:02:58;2.07;;;1.00;;
10725;SDS011;5414;59.782;16.378;2023-04-29T08:05:24;2.27;;;0.97;;
10725;SDS011;5414;59.782;16.378;2023-04-29T08:07:50;1.20;;;0.83;;
10725;SDS011;5414;59.782;16.378;2023-04-29T08:10:16;1.97;;;1.07;;
10725;SDS011;5414;59.782;16.378;2023-04-29T08:12:46;0.97;;;0.80;;
10725;SDS011;5414;59.782;16.378;2023-04-29T08:15:12;1.43;;;0.80;;
10725;SDS011;5414;59.782;16.378;2023-04-29T08:17:38;1.43;;;1.03;;
10725;SDS011;5414;59.782;16.378;2023-04-29T08:20:04;1.63;;;0.93;;
10725;SDS011;5414;59.782;16.378;2023-04-29T08:22:32;1.00;;;0.90;;
10725;SDS011;5414;59.782;16.378;2023-04-29T08:24:58;2.83;;;1.00;;
10725;SDS011;5414;59.782;16.378;2023-04-29T08:27:24;0.90;;;0.80;;
10725;SDS011;5414;59.782;16.378;2023-04-29T08:29:51;2.70;;;1.10;;
10725;SDS011;5414;59.782;16.378;2023-04-29T08:32:17;1.13;;;0.90;;
10725;SDS011;5414;59.782;16.378;2023-04-29T08:34:43;2.10;;;0.93;;
10725;SDS011;5414;59.782;16.378;2023-04-29T08:37:09;1.63;;;0.90;;
10725;SDS011;5414;59.782;16.378;2023-04-29T08:39:35;0.90;;;0.80;;
10725;SDS011;5414;59.782;16.378;2023-04-29T08:42:08;1.53;;;0.90;;
10725;SDS011;5414;59.782;16.378;2023-04-29T08:44:35;1.67;;;1.10;;
10725;SDS011;5414;59.782;16.378;2023-04-29T08:47:01;1.53;;;1.00;;
10725;SDS011;5414;59.782;16.378;2023-04-29T08:49:28;1.90;;;1.30;;
10725;SDS011;5414;59.782;16.378;2023-04-29T08:51:54;1.13;;;0.90;;
10725;SDS011;5414;59.782;16.378;2023-04-29T08:54:20;1.73;;;0.90;;
10725;SDS011;5414;59.782;16.378;2023-04-29T08:56:46;1.10;;;1.00;;
10725;SDS011;5414;59.782;16.378;2023-04-29T08:59:15;1.13;;;0.90;;
10725;SDS011;5414;59.782;16.378;2023-04-29T09:01:42;1.57;;;1.07;;
10725;SDS011;5414;59.782;16.378;2023-04-29T09:04:11;1.00;;;0.90;;
10725;SDS011;5414;59.782;16.378;2023-04-29T09:06:40;1.30;;;0.90;;
10725;SDS011;5414;59.782;16.378;2023-04-29T09:09:06;1.57;;;1.10;;
10725;SDS011;5414;59.782;16.378;2023-04-29T09:11:32;1.97;;;1.20;;
10725;SDS011;5414;59.782;16.378;2023-04-29T09:13:59;3.00;;;1.00;;
10725;SDS011;5414;59.782;16.378;2023-04-29T09:16:26;1.20;;;1.10;;
10725;SDS011;5414;59.782;16.378;2023-04-29T09:18:53;1.40;;;1.20;;
10725;SDS011;5414;59.782;16.378;2023-04-29T09:21:24;1.30;;;1.20;;
10725;SDS011;5414;59.782;16.378;2023-04-29T09:23:55;3.17;;;1.30;;
10725;SDS011;5414;59.782;16.378;2023-04-29T09:26:21;1.40;;;1.30;;
10725;SDS011;5414;59.782;16.378;2023-04-29T09:29:04;3.87;;;1.10;;
10725;SDS011;5414;59.782;16.378;2023-04-29T09:31:30;1.57;;;1.20;;
10725;SDS011;5414;59.782;16.378;2023-04-29T09:33:56;1.37;;;1.27;;
10725;SDS011;5414;59.782;16.378;2023-04-29T09:39:10;1.30;;;1.10;;
10725;SDS011;5414;59.782;16.378;2023-04-29T09:44:18;1.80;;;1.27;;
10725;SDS011;5414;59.782;16.378;2023-04-29T09:47:03;1.20;;;1.10;;
10725;SDS011;5414;59.782;16.378;2023-04-29T09:49:34;1.47;;;1.30;;
10725;SDS011;5414;59.782;16.378;2023-04-29T09:52:03;2.43;;;1.30;;
10725;SDS011;5414;59.782;16.378;2023-04-29T09:54:30;1.83;;;1.20;;
10725;SDS011;5414;59.782;16.378;2023-04-29T09:56:57;1.43;;;1.20;;
10725;SDS011;5414;59.782;16.378;2023-04-29T09:59:23;2.67;;;1.30;;
10725;SDS011;5414;59.782;16.378;2023-04-29T10:01:51;1.23;;;1.10;;
10725;SDS011;5414;59.782;16.378;2023-04-29T10:04:18;2.10;;;1.20;;
10725;SDS011;5414;59.782;16.378;2023-04-29T10:06:45;1.60;;;1.40;;
10725;SDS011;5414;59.782;16.378;2023-04-29T10:09:13;2.10;;;1.20;;
10725;SDS011;5414;59.782;16.378;2023-04-29T10:11:49;1.37;;;1.17;;
10725;SDS011;5414;59.782;16.378;2023-04-29T10:14:17;1.40;;;1.30;;
10725;SDS011;5414;59.782;16.378;2023-04-29T10:19:11;2.17;;;1.30;;
10725;SDS011;5414;59.782;16.378;2023-04-29T10:21:37;1.10;;;1.00;;
10725;SDS011;5414;59.782;16.378;2023-04-29T10:24:03;1.40;;;1.00;;
10725;SDS011;5414;59.782;16.378;2023-04-29T10:26:31;1.30;;;1.00;;
10725;SDS011;5414;59.782;16.378;2023-04-29T10:29:01;2.40;;;1.10;;
10725;SDS011;5414;59.782;16.378;2023-04-29T10:31:27;1.77;;;1.00;;
10725;SDS011;5414;59.782;16.378;2023-04-29T10:33:57;1.63;;;1.07;;
10725;SDS011;5414;59.782;16.378;2023-04-29T10:36:26;4.10;;;0.93;;
10725;SDS011;5414;59.782;16.378;2023-04-29T10:38:55;4.57;;;1.13;;
10725;SDS011;5414;59.782;16.378;2023-04-29T10:41:22;2.00;;;0.97;;
10725;SDS011;5414;59.782;16.378;2023-04-29T10:43:54;2.87;;;1.00;;
10725;SDS011;5414;59.782;16.378;2023-04-29T10:46:21;1.60;;;0.87;;
10725;SDS011;5414;59.782;16.378;2023-04-29T10:48:50;2.13;;;1.00;;
10725;SDS011;5414;59.782;16.378;2023-04-29T10:51:31;1.50;;;1.00;;
10725;SDS011;5414;59.782;16.378;2023-04-29T10:53:58;1.23;;;1.07;;
10725;SDS011;5414;59.782;16.378;2023-04-29T11:01:52;1.00;;;0.80;;
10725;SDS011;5414;59.782;16.378;2023-04-29T11:04:18;1.33;;;0.87;;
10725;SDS011;5414;59.782;16.378;2023-04-29T11:06:52;2.43;;;0.90;;
10725;SDS011;5414;59.782;16.378;2023-04-29T11:09:25;1.23;;;1.10;;
10725;SDS011;5414;59.782;16.378;2023-04-29T11:14:33;1.57;;;0.90;;
10725;SDS011;5414;59.782;16.378;2023-04-29T11:17:05;1.43;;;1.03;;
10725;SDS011;5414;59.782;16.378;2023-04-29T11:19:33;0.93;;;0.83;;
10725;SDS011;5414;59.782;16.378;2023-04-29T11:25:01;1.33;;;1.10;;
10725;SDS011;5414;59.782;16.378;2023-04-29T11:29:57;2.30;;;1.07;;
10725;SDS011;5414;59.782;16.378;2023-04-29T11:32:24;1.80;;;1.07;;
10725;SDS011;5414;59.782;16.378;2023-04-29T11:34:51;2.27;;;1.10;;
10725;SDS011;5414;59.782;16.378;2023-04-29T11:37:24;2.57;;;1.20;;
10725;SDS011;5414;59.782;16.378;2023-04-29T11:39:51;2.23;;;1.10;;
10725;SDS011;5414;59.782;16.378;2023-04-29T11:42:23;1.83;;;0.93;;
10725;SDS011;5414;59.782;16.378;2023-04-29T11:44:50;1.37;;;1.07;;
10725;SDS011;5414;59.782;16.378;2023-04-29T11:47:17;1.10;;;0.90;;
10725;SDS011;5414;59.782;16.378;2023-04-29T11:49:43;1.10;;;0.73;;
10725;SDS011;5414;59.782;16.378;2023-04-29T11:52:09;1.00;;;0.80;;
10725;SDS011;5414;59.782;16.378;2023-04-29T11:54:35;1.47;;;0.83;;
10725;SDS011;5414;59.782;16.378;2023-04-29T11:57:01;0.73;;;0.70;;
10725;SDS011;5414;59.782;16.378;2023-04-29T11:59:30;1.13;;;0.90;;
10725;SDS011;5414;59.782;16.378;2023-04-29T12:01:59;3.13;;;1.00;;
10725;SDS011;5414;59.782;16.378;2023-04-29T12:04:25;1.40;;;1.00;;
10725;SDS011;5414;59.782;16.378;2023-04-29T12:06:51;1.73;;;0.90;;
10725;SDS011;5414;59.782;16.378;2023-04-29T12:09:18;2.47;;;0.83;;
10725;SDS011;5414;59.782;16.378;2023-04-29T12:11:44;1.20;;;0.90;;
10725;SDS011;5414;59.782;16.378;2023-04-29T12:14:14;1.67;;;0.80;;
10725;SDS011;5414;59.782;16.378;2023-04-29T12:16:41;0.80;;;0.80;;
10725;SDS011;5414;59.782;16.378;2023-04-29T12:19:07;1.57;;;0.80;;
10725;SDS011;5414;59.782;16.378;2023-04-29T12:21:34;2.37;;;1.00;;
10725;SDS011;5414;59.782;16.378;2023-04-29T12:24:01;1.37;;;0.80;;
10725;SDS011;5414;59.782;16.378;2023-04-29T12:26:28;1.50;;;0.90;;
10725;SDS011;5414;59.782;16.378;2023-04-29T12:28:56;1.77;;;0.90;;
10725;SDS011;5414;59.782;16.378;2023-04-29T12:31:23;1.60;;;0.93;;
10725;SDS011;5414;59.782;16.378;2023-04-29T12:33:49;1.47;;;0.80;;
10725;SDS011;5414;59.782;16.378;2023-04-29T12:36:19;1.63;;;0.90;;
10725;SDS011;5414;59.782;16.378;2023-04-29T12:38:46;1.17;;;1.07;;
10725;SDS011;5414;59.782;16.378;2023-04-29T12:41:13;3.40;;;0.80;;
10725;SDS011;5414;59.782;16.378;2023-04-29T12:43:41;1.90;;;1.10;;
10725;SDS011;5414;59.782;16.378;2023-04-29T12:46:09;2.27;;;1.00;;
10725;SDS011;5414;59.782;16.378;2023-04-29T12:48:39;1.40;;;0.90;;
10725;SDS011;5414;59.782;16.378;2023-04-29T12:51:09;1.13;;;0.90;;
10725;SDS011;5414;59.782;16.378;2023-04-29T12:53:35;1.47;;;1.03;;
10725;SDS011;5414;59.782;16.378;2023-04-29T12:56:01;1.10;;;1.00;;
10725;SDS011;5414;59.782;16.378;2023-04-29T12:58:28;3.10;;;1.17;;
10725;SDS011;5414;59.782;16.378;2023-04-29T13:00:54;2.63;;;1.20;;
10725;SDS011;5414;59.782;16.378;2023-04-29T13:03:20;2.23;;;0.90;;
10725;SDS011;5414;59.782;16.378;2023-04-29T13:05:46;3.47;;;1.00;;
10725;SDS011;5414;59.782;16.378;2023-04-29T13:08:15;2.40;;;1.30;;
10725;SDS011;5414;59.782;16.378;2023-04-29T13:10:41;3.00;;;1.37;;
10725;SDS011;5414;59.782;16.378;2023-04-29T13:13:07;3.83;;;1.50;;
10725;SDS011;5414;59.782;16.378;2023-04-29T13:15:35;2.67;;;1.00;;
10725;SDS011;5414;59.782;16.378;2023-04-29T13:18:03;1.40;;;1.30;;
10725;SDS011;5414;59.782;16.378;2023-04-29T13:20:29;3.50;;;1.40;;
10725;SDS011;5414;59.782;16.378;2023-04-29T13:22:56;1.63;;;1.50;;
10725;SDS011;5414;59.782;16.378;2023-04-29T13:25:22;3.10;;;1.47;;
10725;SDS011;5414;59.782;16.378;2023-04-29T13:27:48;5.77;;;1.63;;
10725;SDS011;5414;59.782;16.378;2023-04-29T13:30:14;2.87;;;1.40;;
10725;SDS011;5414;59.782;16.378;2023-04-29T13:32:40;2.40;;;1.20;;
10725;SDS011;5414;59.782;16.378;2023-04-29T13:35:07;1.87;;;1.40;;
10725;SDS011;5414;59.782;16.378;2023-04-29T13:37:33;1.23;;;1.13;;
10725;SDS011;5414;59.782;16.378;2023-04-29T13:39:59;1.50;;;1.20;;
10725;SDS011;5414;59.782;16.378;2023-04-29T13:42:25;1.97;;;1.37;;
10725;SDS011;5414;59.782;16.378;2023-04-29T13:44:51;1.77;;;1.23;;
10725;SDS011;5414;59.782;16.378;2023-04-29T13:47:21;4.03;;;1.60;;
10725;SDS011;5414;59.782;16.378;2023-04-29T13:49:47;2.10;;;1.60;;
10725;SDS011;5414;59.782;16.378;2023-04-29T13:52:13;3.13;;;1.60;;
10725;SDS011;5414;59.782;16.378;2023-04-29T13:54:39;2.47;;;1.70;;
10725;SDS011;5414;59.782;16.378;2023-04-29T13:57:06;5.33;;;2.03;;
10725;SDS011;5414;59.782;16.378;2023-04-29T13:59:32;2.53;;;2.33;;
10725;SDS011;5414;59.782;16.378;2023-04-29T14:01:59;3.73;;;2.80;;
10725;SDS011;5414;59.782;16.378;2023-04-29T14:04:25;5.37;;;3.20;;
10725;SDS011;5414;59.782;16.378;2023-04-29T14:06:52;2.90;;;2.70;;
10725;SDS011;5414;59.782;16.378;2023-04-29T14:09:18;4.40;;;2.97;;
10725;SDS011;5414;59.782;16.378;2023-04-29T14:11:45;5.60;;;3.07;;
10725;SDS011;5414;59.782;16.378;2023-04-29T14:14:11;3.77;;;3.10;;
10725;SDS011;5414;59.782;16.378;2023-04-29T14:16:37;4.27;;;2.87;;
10725;SDS011;5414;59.782;16.378;2023-04-29T14:19:03;7.27;;;3.30;;
10725;SDS011;5414;59.782;16.378;2023-04-29T14:21:30;3.57;;;2.87;;
10725;SDS011;5414;59.782;16.378;2023-04-29T14:23:57;3.40;;;3.10;;
10725;SDS011;5414;59.782;16.378;2023-04-29T14:26:23;3.83;;;3.17;;
10725;SDS011;5414;59.782;16.378;2023-04-29T14:28:50;3.10;;;2.70;;
10725;SDS011;5414;59.782;16.378;2023-04-29T14:31:21;3.63;;;2.43;;
10725;SDS011;5414;59.782;16.378;2023-04-29T14:33:47;3.83;;;2.70;;
10725;SDS011;5414;59.782;16.378;2023-04-29T14:36:15;3.10;;;1.97;;
10725;SDS011;5414;59.782;16.378;2023-04-29T14:38:41;3.87;;;2.30;;
10725;SDS011;5414;59.782;16.378;2023-04-29T14:41:07;1.70;;;1.50;;
10725;SDS011;5414;59.782;16.378;2023-04-29T14:43:34;2.10;;;1.80;;
10725;SDS011;5414;59.782;16.378;2023-04-29T14:46:00;2.10;;;1.33;;
10725;SDS011;5414;59.782;16.378;2023-04-29T14:48:26;1.40;;;1.30;;
10725;SDS011;5414;59.782;16.378;2023-04-29T14:50:52;1.60;;;1.50;;
10725;SDS011;5414;59.782;16.378;2023-04-29T14:53:19;2.83;;;1.57;;
10725;SDS011;5414;59.782;16.378;2023-04-29T14:55:50;2.10;;;1.50;;
10725;SDS011;5414;59.782;16.378;2023-04-29T14:58:17;2.13;;;1.50;;
10725;SDS011;5414;59.782;16.378;2023-04-29T15:00:43;2.03;;;1.33;;
10725;SDS011;5414;59.782;16.378;2023-04-29T15:03:09;1.60;;;1.50;;
10725;SDS011;5414;59.782;16.378;2023-04-29T15:05:35;1.30;;;1.20;;
10725;SDS011;5414;59.782;16.378;2023-04-29T15:08:02;2.07;;;1.60;;
10725;SDS011;5414;59.782;16.378;2023-04-29T15:10:28;2.13;;;1.50;;
10725;SDS011;5414;59.782;16.378;2023-04-29T15:12:55;1.63;;;1.53;;
10725;SDS011;5414;59.782;16.378;2023-04-29T15:15:21;1.43;;;1.30;;
10725;SDS011;5414;59.782;16.378;2023-04-29T15:17:47;1.60;;;1.50;;
10725;SDS011;5414;59.782;16.378;2023-04-29T15:20:14;2.43;;;1.40;;